createdAt,value
2017-06-25T00:01:59.410Z,50.70
2017-06-25T00:04:26.939Z,51.20
2017-06-25T00:06:55.226Z,53.00
2017-06-25T00:09:22.773Z,53.00
2017-06-25T00:11:50.309Z,53.10
2017-06-25T00:14:17.857Z,53.60
2017-06-25T00:16:45.385Z,54.70
2017-06-25T00:19:12.931Z,54.80
2017-06-25T00:21:40.453Z,54.90
2017-06-25T00:24:08.785Z,54.80
2017-06-25T00:26:36.311Z,54.80
2017-06-25T00:29:03.846Z,54.30
2017-06-25T00:31:32.157Z,54.80
2017-06-25T00:33:59.682Z,54.00
2017-06-25T00:36:27.243Z,53.90
2017-06-25T00:38:55.535Z,53.90
2017-06-25T00:41:23.848Z,53.80
2017-06-25T00:43:51.377Z,53.70
2017-06-25T00:46:18.933Z,54.70
2017-06-25T00:48:46.468Z,54.60
2017-06-25T00:51:14.769Z,54.50
2017-06-25T00:54:00.174Z,54.50
2017-06-25T00:56:30.919Z,54.70
2017-06-25T00:58:58.483Z,55.30
2017-06-25T01:01:26.006Z,56.00
2017-06-25T01:03:53.551Z,56.50
2017-06-25T01:06:21.086Z,56.80
2017-06-25T01:08:48.633Z,56.80
2017-06-25T01:11:16.164Z,56.80
2017-06-25T01:13:43.730Z,57.00
2017-06-25T01:16:11.263Z,56.30
2017-06-25T01:18:38.794Z,55.70
2017-06-25T01:21:07.105Z,54.50
2017-06-25T01:23:34.634Z,54.50
2017-06-25T01:26:02.199Z,54.20
2017-06-25T01:28:30.163Z,53.90
2017-06-25T01:30:57.726Z,53.70
2017-06-25T01:33:26.070Z,53.90
2017-06-25T01:35:53.654Z,54.50
2017-06-25T01:38:21.443Z,54.50
2017-06-25T01:40:49.001Z,55.00
2017-06-25T01:43:16.529Z,55.70
2017-06-25T01:45:44.064Z,55.90
2017-06-25T01:48:11.618Z,56.40
2017-06-25T01:50:39.145Z,56.30
2017-06-25T01:53:06.718Z,56.50
2017-06-25T01:55:34.270Z,56.90
2017-06-25T01:58:01.818Z,56.90
2017-06-25T02:00:29.374Z,56.70
2017-06-25T02:02:57.079Z,56.70
2017-06-25T02:05:24.635Z,56.70
2017-06-25T02:07:52.168Z,56.80
2017-06-25T02:10:19.715Z,57.10
2017-06-25T02:12:47.250Z,57.50
2017-06-25T02:15:15.571Z,57.60
2017-06-25T02:17:43.093Z,57.60
2017-06-25T02:20:10.626Z,57.60
2017-06-25T02:22:38.179Z,57.20
2017-06-25T02:25:05.711Z,57.00
2017-06-25T02:27:33.252Z,56.60
2017-06-25T02:30:00.779Z,57.00
2017-06-25T02:32:28.357Z,56.50
2017-06-25T02:34:55.895Z,56.20
2017-06-25T02:37:24.217Z,56.20
2017-06-25T02:39:51.746Z,56.20
2017-06-25T02:42:19.297Z,56.30
2017-06-25T02:44:47.619Z,56.40
2017-06-25T02:47:16.166Z,56.40
2017-06-25T02:49:43.707Z,56.40
2017-06-25T02:52:11.997Z,56.90
2017-06-25T02:54:39.550Z,56.90
2017-06-25T02:57:07.845Z,56.40
2017-06-25T02:59:35.395Z,56.40
2017-06-25T03:02:02.917Z,56.30
2017-06-25T03:04:30.446Z,56.10
2017-06-25T03:06:57.999Z,56.60
2017-06-25T03:09:37.370Z,56.70
2017-06-25T03:12:04.931Z,57.30
2017-06-25T03:14:32.457Z,57.40
2017-06-25T03:17:00.022Z,58.40
2017-06-25T03:19:27.550Z,58.40
2017-06-25T03:21:55.082Z,58.30
2017-06-25T03:24:23.406Z,58.20
2017-06-25T03:26:50.933Z,58.10
2017-06-25T03:29:18.481Z,58.00
2017-06-25T03:31:46.776Z,58.40
2017-06-25T03:34:14.326Z,58.30
2017-06-25T03:36:41.870Z,58.70
2017-06-25T03:39:10.214Z,59.40
2017-06-25T03:41:37.733Z,59.40
2017-06-25T03:44:05.318Z,59.20
2017-06-25T03:46:32.846Z,59.00
2017-06-25T03:49:00.382Z,58.70
2017-06-25T03:51:28.704Z,57.40
2017-06-25T03:53:57.273Z,57.40
2017-06-25T03:56:24.839Z,56.20
2017-06-25T03:58:52.369Z,55.60
2017-06-25T04:01:20.696Z,55.20
2017-06-25T04:03:48.222Z,55.20
2017-06-25T04:06:15.767Z,55.30
2017-06-25T04:08:44.155Z,53.40
2017-06-25T04:11:11.680Z,53.30
2017-06-25T04:13:39.226Z,52.40
2017-06-25T04:16:06.779Z,53.70
2017-06-25T04:18:34.326Z,54.30
2017-06-25T04:21:01.839Z,54.10
2017-06-25T04:23:30.151Z,52.40
2017-06-25T04:25:57.675Z,52.40
2017-06-25T04:28:25.978Z,46.00
2017-06-25T04:30:53.499Z,45.90
2017-06-25T04:33:21.061Z,42.00
2017-06-25T04:35:49.776Z,35.10
2017-06-25T04:38:17.306Z,35.00
2017-06-25T04:40:45.631Z,36.70
2017-06-25T04:43:13.149Z,36.70
2017-06-25T04:45:40.697Z,36.90
2017-06-25T04:48:08.989Z,39.40
2017-06-25T04:50:37.301Z,41.20
2017-06-25T04:53:04.823Z,41.10
2017-06-25T04:55:33.148Z,42.80
2017-06-25T04:58:00.675Z,42.80
2017-06-25T05:00:28.202Z,39.00
2017-06-25T05:02:56.519Z,28.00
2017-06-25T05:05:24.047Z,28.40
2017-06-25T05:07:52.361Z,27.10
2017-06-25T05:10:19.880Z,27.10
2017-06-25T05:12:48.190Z,31.60
2017-06-25T05:15:15.707Z,30.90
2017-06-25T05:17:43.260Z,33.40
2017-06-25T05:20:10.786Z,34.50
2017-06-25T05:22:38.321Z,34.20
2017-06-25T05:25:05.866Z,34.30
2017-06-25T05:27:33.390Z,34.50
2017-06-25T05:30:00.944Z,34.80
2017-06-25T05:32:28.458Z,36.10
2017-06-25T05:34:56.009Z,36.60
2017-06-25T05:37:23.543Z,36.00
2017-06-25T05:39:51.086Z,35.50
2017-06-25T05:42:18.619Z,35.50
2017-06-25T05:44:46.175Z,35.80
2017-06-25T05:47:13.700Z,35.90
2017-06-25T05:49:41.231Z,36.80
2017-06-25T05:52:08.781Z,37.20
2017-06-25T05:54:36.321Z,37.70
2017-06-25T05:57:03.877Z,37.50
2017-06-25T05:59:31.401Z,37.30
2017-06-25T06:01:58.949Z,37.60
2017-06-25T06:04:26.470Z,36.60
2017-06-25T06:06:54.014Z,35.80
2017-06-25T06:09:21.544Z,36.20
2017-06-25T06:11:49.097Z,34.50
2017-06-25T06:14:16.617Z,33.10
2017-06-25T06:16:44.137Z,32.10
2017-06-25T06:19:11.691Z,31.60
2017-06-25T06:21:39.210Z,30.90
2017-06-25T06:24:07.905Z,31.00
2017-06-25T06:26:35.425Z,30.90
2017-06-25T06:29:02.972Z,29.40
2017-06-25T06:31:30.482Z,26.70
2017-06-25T06:33:58.038Z,26.50
2017-06-25T06:36:25.557Z,26.80
2017-06-25T06:38:53.110Z,27.30
2017-06-25T06:41:20.662Z,29.20
2017-06-25T06:43:48.186Z,29.90
2017-06-25T06:46:15.757Z,29.90
2017-06-25T06:48:43.341Z,30.60
2017-06-25T06:51:10.891Z,30.80
2017-06-25T06:53:38.437Z,31.10
2017-06-25T06:56:05.997Z,31.00
2017-06-25T06:58:33.518Z,32.50
2017-06-25T07:01:01.983Z,33.50
2017-06-25T07:03:29.537Z,34.10
2017-06-25T07:05:57.061Z,35.10
2017-06-25T07:08:24.625Z,36.10
2017-06-25T07:10:52.154Z,36.80
2017-06-25T07:13:19.703Z,36.10
2017-06-25T07:15:47.231Z,35.60
2017-06-25T07:18:14.778Z,36.90
2017-06-25T07:20:42.333Z,35.40
2017-06-25T07:23:10.001Z,33.60
2017-06-25T07:25:38.349Z,30.50
2017-06-25T07:28:05.881Z,30.50
2017-06-25T07:30:33.427Z,29.70
2017-06-25T07:33:00.975Z,29.90
2017-06-25T07:35:29.298Z,31.50
2017-06-25T07:37:56.821Z,31.50
2017-06-25T07:40:25.135Z,32.40
2017-06-25T07:42:52.661Z,32.40
2017-06-25T07:45:20.961Z,32.20
2017-06-25T07:47:48.483Z,32.20
2017-06-25T07:50:16.786Z,30.90
2017-06-25T07:52:44.327Z,30.80
2017-06-25T07:55:12.657Z,32.10
2017-06-25T07:57:40.185Z,32.10
2017-06-25T08:00:07.706Z,33.50
2017-06-25T08:02:35.244Z,34.80
2017-06-25T08:05:02.770Z,35.40
2017-06-25T08:07:30.318Z,35.10
2017-06-25T08:09:57.851Z,35.90
2017-06-25T08:12:25.375Z,34.90
2017-06-25T08:14:52.986Z,35.10
2017-06-25T08:17:20.515Z,35.90
2017-06-25T08:19:48.061Z,34.20
2017-06-25T08:22:15.590Z,35.00
2017-06-25T08:24:43.130Z,33.50
2017-06-25T08:27:10.661Z,32.30
2017-06-25T08:29:38.944Z,31.40
2017-06-25T08:32:06.487Z,31.30
2017-06-25T08:34:34.007Z,30.20
2017-06-25T08:37:01.546Z,30.40
2017-06-25T08:39:29.076Z,30.80
2017-06-25T08:41:57.357Z,30.00
2017-06-25T08:44:25.664Z,30.20
2017-06-25T08:46:53.185Z,30.10
2017-06-25T08:49:21.490Z,30.20
2017-06-25T08:51:49.014Z,30.10
2017-06-25T08:54:17.326Z,31.10
2017-06-25T08:56:44.854Z,31.00
2017-06-25T08:59:13.177Z,31.90
2017-06-25T09:01:40.726Z,31.90
2017-06-25T09:04:08.260Z,32.10
2017-06-25T09:06:36.566Z,32.10
2017-06-25T09:09:04.113Z,32.10
2017-06-25T09:11:31.643Z,32.10
2017-06-25T09:13:59.958Z,30.90
2017-06-25T09:16:27.480Z,30.80
2017-06-25T09:18:55.799Z,32.10
2017-06-25T09:21:23.329Z,32.00
2017-06-25T09:23:50.853Z,31.20
2017-06-25T09:26:18.406Z,30.90
2017-06-25T09:28:45.946Z,30.90
2017-06-25T09:31:13.482Z,30.90
2017-06-25T09:33:41.002Z,30.90
2017-06-25T09:36:08.522Z,31.40
2017-06-25T09:38:36.065Z,30.60
2017-06-25T09:41:03.590Z,30.00
2017-06-25T09:43:31.907Z,30.30
2017-06-25T09:45:59.443Z,30.30
2017-06-25T09:48:26.973Z,30.40
2017-06-25T09:50:54.516Z,30.30
2017-06-25T09:53:22.038Z,31.10
2017-06-25T09:55:49.574Z,31.60
2017-06-25T09:58:17.094Z,31.50
2017-06-25T10:00:44.618Z,31.50
2017-06-25T10:03:12.166Z,31.70
2017-06-25T10:05:39.686Z,31.50
2017-06-25T10:08:08.434Z,30.50
2017-06-25T10:10:35.958Z,30.50
2017-06-25T10:13:03.488Z,30.50
2017-06-25T10:15:31.806Z,30.60
2017-06-25T10:17:59.330Z,30.60
2017-06-25T10:20:27.638Z,29.40
2017-06-25T10:22:55.154Z,29.40
2017-06-25T10:25:22.670Z,28.50
2017-06-25T10:27:50.206Z,27.40
2017-06-25T10:30:17.738Z,28.20
2017-06-25T10:32:46.046Z,27.70
2017-06-25T10:35:13.631Z,27.70
2017-06-25T10:37:41.157Z,28.10
2017-06-25T10:40:08.698Z,27.70
2017-06-25T10:42:37.011Z,26.00
2017-06-25T10:45:04.557Z,25.90
2017-06-25T10:47:32.115Z,25.40
2017-06-25T10:49:59.645Z,24.50
2017-06-25T10:52:27.973Z,24.00
2017-06-25T10:54:55.502Z,24.00
2017-06-25T10:57:23.036Z,25.30
2017-06-25T10:59:51.326Z,24.90
2017-06-25T11:02:19.630Z,24.60
2017-06-25T11:04:47.733Z,24.60
2017-06-25T11:07:15.294Z,23.20
2017-06-25T11:09:42.844Z,22.90
2017-06-25T11:12:10.370Z,23.00
2017-06-25T11:14:37.917Z,22.30
2017-06-25T11:17:05.459Z,21.40
2017-06-25T11:19:33.779Z,20.70
2017-06-25T11:22:01.299Z,20.60
2017-06-25T11:24:29.691Z,21.20
2017-06-25T11:26:57.224Z,21.20
2017-06-25T11:29:24.763Z,21.60
2017-06-25T11:31:52.299Z,21.40
2017-06-25T11:34:19.869Z,22.60
2017-06-25T11:36:47.406Z,22.90
2017-06-25T11:39:14.931Z,22.80
2017-06-25T11:41:43.247Z,24.40
2017-06-25T11:44:10.773Z,24.40
2017-06-25T11:46:38.318Z,25.50
2017-06-25T11:49:06.602Z,28.80
2017-06-25T11:51:34.917Z,29.50
2017-06-25T11:54:02.443Z,29.50
2017-06-25T11:56:30.002Z,30.70
2017-06-25T11:58:58.293Z,32.10
2017-06-25T12:01:25.810Z,32.00
2017-06-25T12:03:53.363Z,32.90
2017-06-25T12:06:20.879Z,31.10
2017-06-25T12:08:48.415Z,30.30
2017-06-25T12:11:16.694Z,28.60
2017-06-25T12:13:44.238Z,28.60
2017-06-25T12:16:12.525Z,25.90
2017-06-25T12:18:40.840Z,24.70
2017-06-25T12:21:08.362Z,25.20
2017-06-25T12:23:35.886Z,24.90
2017-06-25T12:26:03.435Z,24.30
2017-06-25T12:28:30.953Z,25.10
2017-06-25T12:30:58.501Z,25.80
2017-06-25T12:33:26.021Z,25.80
2017-06-25T12:35:53.575Z,25.80
2017-06-25T12:38:21.101Z,25.00
2017-06-25T12:40:48.699Z,24.70
2017-06-25T12:43:16.218Z,24.40
2017-06-25T12:45:43.743Z,23.60
2017-06-25T12:48:12.060Z,23.20
2017-06-25T12:50:39.586Z,23.20
2017-06-25T12:53:07.126Z,23.50
2017-06-25T12:55:35.426Z,23.00
2017-06-25T12:58:02.966Z,22.90
2017-06-25T13:00:31.250Z,23.80
2017-06-25T13:02:58.801Z,23.80
2017-06-25T13:05:27.137Z,24.30
2017-06-25T13:07:54.674Z,24.30
2017-06-25T13:10:23.081Z,24.30
2017-06-25T13:12:50.601Z,24.80
2017-06-25T13:15:18.156Z,24.60
2017-06-25T13:17:45.682Z,24.40
2017-06-25T13:20:13.238Z,22.80
2017-06-25T13:22:40.763Z,23.00
2017-06-25T13:25:08.328Z,21.40
2017-06-25T13:27:35.859Z,21.90
2017-06-25T13:30:03.377Z,22.40
2017-06-25T13:32:30.919Z,22.60
2017-06-25T13:34:58.447Z,22.30
2017-06-25T13:37:25.987Z,22.00
2017-06-25T13:39:53.513Z,21.80
2017-06-25T13:42:21.823Z,18.10
2017-06-25T13:44:49.349Z,18.50
2017-06-25T13:47:17.662Z,21.40
2017-06-25T13:49:45.182Z,21.00
2017-06-25T13:52:13.471Z,19.90
2017-06-25T13:54:41.830Z,18.60
2017-06-25T13:57:09.347Z,18.60
2017-06-25T13:59:36.886Z,18.70
2017-06-25T14:02:04.416Z,19.10
2017-06-25T14:04:32.718Z,20.70
2017-06-25T14:07:00.243Z,20.10
2017-06-25T14:09:28.350Z,19.60
2017-06-25T14:11:55.878Z,20.00
2017-06-25T14:14:23.398Z,20.50
2017-06-25T14:16:50.942Z,20.90
2017-06-25T14:19:18.453Z,20.40
2017-06-25T14:21:45.999Z,19.70
2017-06-25T14:24:13.519Z,19.10
2017-06-25T14:26:41.069Z,19.60
2017-06-25T14:29:08.586Z,18.80
2017-06-25T14:31:36.131Z,18.80
2017-06-25T14:34:03.658Z,19.20
2017-06-25T14:36:31.194Z,19.40
2017-06-25T14:38:58.731Z,19.50
2017-06-25T14:41:26.254Z,21.00
2017-06-25T14:43:53.791Z,19.70
2017-06-25T14:46:21.320Z,19.60
2017-06-25T14:48:48.919Z,19.90
2017-06-25T14:51:16.442Z,20.30
2017-06-25T14:53:43.986Z,20.20
2017-06-25T14:56:12.274Z,19.20
2017-06-25T14:58:40.369Z,19.20
2017-06-25T15:01:07.906Z,19.10
2017-06-25T15:03:35.433Z,19.20
2017-06-25T15:06:02.986Z,17.80
2017-06-25T15:08:31.513Z,17.00
2017-06-25T15:10:59.046Z,16.70
2017-06-25T15:13:26.569Z,16.40
2017-06-25T15:15:54.134Z,16.00
2017-06-25T15:18:21.654Z,15.90
2017-06-25T15:20:49.175Z,15.10
2017-06-25T15:23:16.714Z,15.40
2017-06-25T15:25:44.245Z,15.90
2017-06-25T15:28:11.780Z,16.20
2017-06-25T15:30:39.306Z,17.90
2017-06-25T15:33:06.837Z,18.00
2017-06-25T15:35:34.361Z,18.50
2017-06-25T15:38:01.919Z,18.70
2017-06-25T15:40:29.438Z,19.40
2017-06-25T15:42:56.969Z,19.20
2017-06-25T15:45:24.514Z,19.70
2017-06-25T15:47:52.030Z,19.40
2017-06-25T15:50:20.346Z,19.40
2017-06-25T15:52:47.875Z,19.40
2017-06-25T15:55:15.429Z,19.10
2017-06-25T15:57:43.715Z,18.90
2017-06-25T16:00:11.262Z,18.90
2017-06-25T16:02:39.570Z,19.90
2017-06-25T16:05:07.094Z,20.40
2017-06-25T16:07:35.394Z,19.90
2017-06-25T16:10:02.918Z,19.70
2017-06-25T16:12:31.249Z,20.40
2017-06-25T16:14:58.779Z,20.40
2017-06-25T16:17:26.318Z,20.20
2017-06-25T16:19:54.623Z,20.70
2017-06-25T16:22:22.197Z,20.70
2017-06-25T16:24:50.215Z,20.90
2017-06-25T16:27:17.741Z,21.30
2017-06-25T16:29:45.305Z,21.10
2017-06-25T16:32:12.833Z,21.60
2017-06-25T16:34:40.370Z,21.50
2017-06-25T16:37:08.669Z,22.00
2017-06-25T16:39:36.214Z,22.00
2017-06-25T16:42:03.797Z,22.30
2017-06-25T16:44:31.343Z,23.30
2017-06-25T16:46:58.862Z,22.90
2017-06-25T16:49:26.388Z,24.00
2017-06-25T16:51:53.959Z,23.50
2017-06-25T16:54:21.498Z,23.90
2017-06-25T16:56:49.056Z,24.60
2017-06-25T16:59:16.575Z,24.50
2017-06-25T17:01:48.159Z,24.80
2017-06-25T17:04:15.683Z,24.80
2017-06-25T17:06:43.999Z,25.80
2017-06-25T17:09:11.597Z,25.70
2017-06-25T17:11:39.158Z,25.80
2017-06-25T17:14:07.494Z,25.90
2017-06-25T17:16:35.025Z,25.90
2017-06-25T17:19:02.561Z,26.00
2017-06-25T17:21:30.850Z,26.40
2017-06-25T17:23:58.397Z,26.20
2017-06-25T17:26:26.747Z,26.40
2017-06-25T17:28:54.283Z,26.40
2017-06-25T17:31:21.801Z,26.80
2017-06-25T17:33:50.110Z,27.20
2017-06-25T17:36:17.650Z,27.20
2017-06-25T17:38:45.198Z,27.10
2017-06-25T17:41:13.499Z,27.30
2017-06-25T17:43:44.010Z,27.30
2017-06-25T17:46:12.305Z,27.90
2017-06-25T17:48:39.870Z,27.90
2017-06-25T17:51:07.387Z,27.80
2017-06-25T17:53:35.730Z,28.20
2017-06-25T17:56:03.250Z,27.80
2017-06-25T17:58:30.789Z,27.80
2017-06-25T18:00:59.073Z,28.20
2017-06-25T18:03:27.386Z,28.60
2017-06-25T18:05:54.902Z,28.50
2017-06-25T18:08:22.446Z,28.50
2017-06-25T18:10:49.974Z,28.60
2017-06-25T18:13:17.511Z,29.10
2017-06-25T18:15:45.074Z,29.00
2017-06-25T18:18:12.610Z,28.90
2017-06-25T18:20:40.138Z,28.90
2017-06-25T18:23:07.694Z,29.00
2017-06-25T18:25:35.260Z,29.00
2017-06-25T18:28:03.552Z,29.00
2017-06-25T18:30:31.858Z,29.20
2017-06-25T18:32:59.377Z,29.20
2017-06-25T18:35:26.926Z,29.20
2017-06-25T18:37:55.230Z,30.00
2017-06-25T18:40:22.771Z,29.40
2017-06-25T18:42:50.293Z,29.50
2017-06-25T18:45:17.835Z,29.30
2017-06-25T18:47:45.360Z,29.50
2017-06-25T18:50:12.910Z,29.70
2017-06-25T18:52:40.483Z,29.80
2017-06-25T18:55:08.007Z,29.80
2017-06-25T18:57:35.550Z,30.00
2017-06-25T19:00:03.096Z,30.10
2017-06-25T19:02:30.639Z,30.50
2017-06-25T19:04:58.161Z,31.10
2017-06-25T19:07:25.716Z,30.90
2017-06-25T19:09:54.030Z,30.90
2017-06-25T19:12:21.587Z,30.90
2017-06-25T19:14:49.116Z,30.80
2017-06-25T19:17:17.405Z,31.40
2017-06-25T19:19:44.954Z,31.40
2017-06-25T19:22:13.249Z,32.10
2017-06-25T19:24:40.817Z,32.10
2017-06-25T19:27:08.337Z,32.20
2017-06-25T19:29:36.695Z,32.40
2017-06-25T19:32:04.220Z,32.40
2017-06-25T19:34:31.765Z,32.50
2017-06-25T19:36:59.300Z,32.70
2017-06-25T19:39:26.869Z,32.60
2017-06-25T19:41:54.387Z,33.00
2017-06-25T19:44:21.925Z,33.00
2017-06-25T19:46:49.592Z,33.30
2017-06-25T19:49:17.121Z,33.80
2017-06-25T19:51:44.668Z,33.70
2017-06-25T19:54:13.034Z,34.20
2017-06-25T19:56:41.352Z,35.70
2017-06-25T19:59:08.874Z,34.90
2017-06-25T20:01:36.450Z,35.00
2017-06-25T20:04:07.640Z,34.90
2017-06-25T20:06:35.198Z,34.90
2017-06-25T20:09:03.520Z,35.40
2017-06-25T20:11:31.055Z,35.40
2017-06-25T20:13:58.708Z,35.60
2017-06-25T20:16:26.281Z,35.80
2017-06-25T20:18:54.594Z,36.00
2017-06-25T20:21:22.129Z,36.00
2017-06-25T20:23:50.444Z,36.60
2017-06-25T20:26:18.031Z,36.60
2017-06-25T20:28:45.583Z,36.90
2017-06-25T20:31:13.108Z,37.10
2017-06-25T20:33:40.678Z,37.70
2017-06-25T20:36:08.193Z,38.50
2017-06-25T20:38:36.478Z,38.90
2017-06-25T20:41:04.021Z,38.80
2017-06-25T20:43:32.317Z,39.40
2017-06-25T20:45:59.884Z,38.80
2017-06-25T20:48:27.407Z,38.80
2017-06-25T20:50:54.980Z,38.70
2017-06-25T20:53:23.280Z,39.00
2017-06-25T20:55:50.826Z,39.00
2017-06-25T20:58:19.105Z,39.70
2017-06-25T21:00:46.666Z,39.70
2017-06-25T21:03:14.199Z,39.60
2017-06-25T21:05:41.768Z,40.00
2017-06-25T21:08:10.060Z,40.40
2017-06-25T21:10:37.587Z,40.40
2017-06-25T21:13:05.160Z,40.30
2017-06-25T21:15:33.458Z,41.10
2017-06-25T21:18:01.002Z,41.10
2017-06-25T21:20:29.287Z,41.50
2017-06-25T21:22:56.833Z,41.40
2017-06-25T21:25:25.122Z,41.80
2017-06-25T21:27:52.678Z,41.80
2017-06-25T21:30:20.961Z,42.00
2017-06-25T21:32:48.515Z,42.00
2017-06-25T21:35:16.038Z,42.40
2017-06-25T21:37:43.586Z,42.60
2017-06-25T21:40:11.141Z,42.10
2017-06-25T21:42:39.466Z,43.40
2017-06-25T21:45:07.030Z,42.50
2017-06-25T21:47:34.582Z,42.40
2017-06-25T21:50:06.145Z,42.50
2017-06-25T21:52:33.683Z,42.50
2017-06-25T21:55:01.241Z,42.40
2017-06-25T21:57:28.773Z,42.40
2017-06-25T21:59:56.324Z,42.00
2017-06-25T22:02:23.849Z,42.30
2017-06-25T22:04:51.410Z,42.90
2017-06-25T22:07:18.947Z,42.30
2017-06-25T22:09:47.330Z,42.70
2017-06-25T22:12:14.871Z,42.70
2017-06-25T22:14:43.170Z,43.80
2017-06-25T22:17:10.714Z,43.80
2017-06-25T22:19:39.010Z,44.40
2017-06-25T22:22:06.550Z,44.40
2017-06-25T22:24:34.838Z,44.60
2017-06-25T22:27:03.277Z,44.50
2017-06-25T22:29:31.578Z,45.10
2017-06-25T22:31:59.897Z,44.80
2017-06-25T22:34:27.426Z,44.30
2017-06-25T22:36:55.710Z,44.40
2017-06-25T22:39:23.249Z,44.30
2017-06-25T22:41:51.545Z,44.80
2017-06-25T22:44:19.089Z,44.80
2017-06-25T22:46:47.387Z,45.20
2017-06-25T22:49:14.941Z,45.10
2017-06-25T22:51:42.458Z,45.30
2017-06-25T22:54:09.998Z,45.20
2017-06-25T22:56:37.522Z,45.20
2017-06-25T22:59:05.077Z,45.40
2017-06-25T23:01:32.608Z,45.40
2017-06-25T23:04:00.907Z,45.10
2017-06-25T23:06:28.454Z,45.60
2017-06-25T23:08:56.747Z,46.30
2017-06-25T23:11:24.287Z,46.10
2017-06-25T23:13:52.588Z,46.70
2017-06-25T23:16:20.146Z,46.70
2017-06-25T23:18:47.722Z,46.70
2017-06-25T23:21:18.701Z,46.70
2017-06-25T23:23:46.234Z,46.70
2017-06-25T23:26:13.848Z,46.60
2017-06-25T23:28:42.134Z,47.50
2017-06-25T23:31:09.658Z,47.50
2017-06-25T23:33:37.207Z,48.00
2017-06-25T23:36:04.768Z,48.10
2017-06-25T23:38:32.308Z,47.80
2017-06-25T23:40:59.832Z,48.00
2017-06-25T23:43:27.378Z,48.50
2017-06-25T23:45:55.666Z,49.00
2017-06-25T23:48:23.214Z,49.00
2017-06-25T23:50:51.502Z,49.30
2017-06-25T23:53:19.059Z,50.00
2017-06-25T23:55:46.621Z,49.00
2017-06-25T23:58:14.146Z,49.30
